Time;durP1;ratioP1;P1;durP2;ratioP2;P2;SDS_P1;SDS_P2;PMS_P1;PMS_P2;Temp;Humidity;BMP_temperature;BMP_pressure;BME280_temperature;BME280_humidity;BME280_pressure;Samples;Min_cycle;Max_cycle;Signal;HPM_P1;HPM_P2
2022/10/07 00:01:11;;;;;;;4.43;3.38;;;15.80;73.00;;;;;;5077576;28;20025;-66
2022/10/07 00:03:37;;;;;;;5.55;3.90;;;15.80;73.00;;;;;;5071873;28;20089;-66
2022/10/07 00:06:05;;;;;;;4.30;3.50;;;15.80;73.20;;;;;;5072969;28;20422;-66
2022/10/07 00:08:30;;;;;;;4.53;3.20;;;15.80;73.30;;;;;;5072914;28;20086;-66
2022/10/07 00:10:56;;;;;;;4.32;3.55;;;15.80;73.50;;;;;;5067920;28;20491;-66
2022/10/07 00:13:22;;;;;;;3.55;3.25;;;15.80;73.50;;;;;;5071550;28;20426;-66
2022/10/07 00:15:48;;;;;;;5.13;3.50;;;15.80;73.50;;;;;;5061618;28;20024;-66
2022/10/07 00:18:13;;;;;;;3.85;3.45;;;15.70;73.60;;;;;;5068315;28;20024;-66
2022/10/07 00:20:39;;;;;;;5.68;3.67;;;15.70;73.60;;;;;;5069693;28;20017;-66
2022/10/07 00:23:06;;;;;;;5.40;3.47;;;15.70;73.70;;;;;;5072893;28;20047;-66
2022/10/07 00:25:36;;;;;;;4.55;3.28;;;15.80;73.80;;;;;;5069092;28;20051;-66
2022/10/07 00:28:02;;;;;;;3.85;3.30;;;15.70;74.00;;;;;;5069645;28;20031;-66
2022/10/07 00:30:28;;;;;;;3.28;2.85;;;15.70;73.90;;;;;;5069612;28;20104;-66
2022/10/07 00:32:54;;;;;;;3.65;3.20;;;15.70;74.00;;;;;;5070889;28;20111;-66
2022/10/07 00:35:19;;;;;;;4.65;3.35;;;15.70;74.00;;;;;;5071369;28;20442;-66
2022/10/07 00:37:45;;;;;;;3.53;3.00;;;15.70;74.10;;;;;;5071994;28;20078;-66
2022/10/07 00:40:12;;;;;;;3.85;3.15;;;15.70;74.20;;;;;;5069135;28;20032;-66
2022/10/07 00:42:39;;;;;;;4.10;3.25;;;15.70;74.20;;;;;;5068527;28;20126;-66
2022/10/07 00:45:12;;;;;;;3.13;2.70;;;15.70;74.30;;;;;;5062909;28;20128;-66
2022/10/07 00:47:40;;;;;;;3.30;3.00;;;15.70;74.40;;;;;;5070549;28;20025;-66
2022/10/07 00:50:28;;;;;;;3.75;3.30;;;15.80;74.40;;;;;;5061834;28;20486;-66
2022/10/07 00:52:58;;;;;;;4.05;3.33;;;15.80;74.40;;;;;;5070853;28;20033;-66
2022/10/07 00:55:27;;;;;;;4.18;3.58;;;15.80;74.30;;;;;;5068109;28;20433;-66
2022/10/07 00:57:56;;;;;;;4.75;3.50;;;15.80;74.30;;;;;;5067396;28;20606;-66
2022/10/07 01:00:22;;;;;;;4.97;3.42;;;15.90;74.40;;;;;;5067100;28;20050;-66
2022/10/07 01:02:48;;;;;;;3.38;2.95;;;15.90;74.40;;;;;;5059931;28;20020;-66
2022/10/07 01:05:15;;;;;;;4.45;3.40;;;15.90;74.40;;;;;;5071828;28;20535;-66
2022/10/07 01:07:41;;;;;;;3.30;3.00;;;15.90;74.50;;;;;;5069364;28;20029;-66
2022/10/07 01:10:10;;;;;;;4.50;3.60;;;15.90;74.40;;;;;;5066772;28;20031;-66
2022/10/07 01:12:55;;;;;;;4.53;3.65;;;15.90;74.60;;;;;;5068114;28;20115;-66
2022/10/07 01:15:41;;;;;;;5.13;3.60;;;15.90;74.60;;;;;;5064392;28;20032;-66
2022/10/07 01:18:16;;;;;;;3.83;3.50;;;15.90;74.60;;;;;;5071432;28;20020;-66
2022/10/07 01:20:58;;;;;;;4.45;3.60;;;15.80;74.70;;;;;;5067650;28;20024;-66
2022/10/07 01:23:27;;;;;;;4.90;4.00;;;15.80;74.80;;;;;;5066179;28;20036;-66
2022/10/07 01:26:03;;;;;;;5.28;3.63;;;15.80;75.00;;;;;;5066359;28;20488;-66
2022/10/07 01:28:36;;;;;;;4.63;3.78;;;15.80;75.00;;;;;;5067386;28;20031;-66
2022/10/07 01:31:06;;;;;;;4.38;3.95;;;15.80;75.20;;;;;;5070908;28;20067;-66
2022/10/07 01:33:33;;;;;;;5.78;3.90;;;15.70;75.20;;;;;;5060198;28;20031;-66
2022/10/07 01:36:08;;;;;;;5.47;3.90;;;15.70;75.20;;;;;;5069204;28;20391;-66
2022/10/07 01:38:36;;;;;;;4.40;3.72;;;15.70;75.40;;;;;;5067349;28;20039;-66
2022/10/07 01:41:11;;;;;;;4.07;3.45;;;15.60;75.90;;;;;;5061581;28;20017;-66
2022/10/07 01:43:38;;;;;;;4.32;3.60;;;15.60;75.40;;;;;;5068470;28;20488;-66
2022/10/07 01:46:10;;;;;;;4.15;3.50;;;15.60;75.70;;;;;;5070961;28;20091;-66
2022/10/07 01:48:36;;;;;;;4.32;3.67;;;15.60;75.60;;;;;;5067866;28;20053;-66
2022/10/07 01:51:02;;;;;;;4.43;3.80;;;15.60;75.70;;;;;;5062381;28;20484;-66
2022/10/07 01:53:39;;;;;;;4.78;3.50;;;15.50;75.70;;;;;;5063199;28;20033;-66
2022/10/07 01:56:37;;;;;;;6.07;4.00;;;15.50;76.00;;;;;;5062901;28;20028;-66
2022/10/07 01:59:33;;;;;;;6.25;4.20;;;15.50;76.00;;;;;;5041286;28;20047;-66
2022/10/07 02:02:11;;;;;;;4.35;3.45;;;15.40;76.10;;;;;;5068727;28;20028;-66
2022/10/07 02:04:56;;;;;;;5.13;4.10;;;15.40;76.10;;;;;;5066770;28;20020;-66
2022/10/07 02:07:39;;;;;;;5.15;3.92;;;15.40;76.30;;;;;;5065215;28;20099;-66
2022/10/07 02:10:30;;;;;;;4.32;3.92;;;15.30;76.50;;;;;;5070194;28;20149;-66
2022/10/07 02:13:03;;;;;;;5.18;4.38;;;15.30;76.60;;;;;;5067084;28;20120;-66
2022/10/07 02:15:41;;;;;;;5.22;3.85;;;15.30;76.70;;;;;;5070583;28;20060;-66
2022/10/07 02:18:13;;;;;;;4.25;3.50;;;15.30;76.80;;;;;;5069521;28;20021;-66
2022/10/07 02:20:40;;;;;;;4.45;3.50;;;15.20;76.90;;;;;;5068419;28;20024;-66
2022/10/07 02:23:09;;;;;;;4.38;3.75;;;15.20;77.10;;;;;;5071143;28;20024;-66
2022/10/07 02:25:39;;;;;;;4.90;4.15;;;15.20;77.10;;;;;;5063343;28;20032;-66
2022/10/07 02:28:08;;;;;;;4.57;3.60;;;15.20;77.20;;;;;;5063920;28;20032;-66
2022/10/07 02:30:35;;;;;;;5.63;4.03;;;15.20;77.30;;;;;;5061466;28;20023;-66
2022/10/07 02:33:03;;;;;;;4.13;3.65;;;15.20;77.40;;;;;;5069757;28;20031;-66
2022/10/07 02:36:04;;;;;;;4.30;3.75;;;15.20;77.50;;;;;;5063720;28;20402;-66
2022/10/07 02:38:30;;;;;;;4.55;3.75;;;15.20;77.60;;;;;;5066433;28;20037;-66
2022/10/07 02:41:31;;;;;;;4.20;3.72;;;15.10;77.60;;;;;;5065587;28;20039;-66
2022/10/07 02:44:10;;;;;;;4.68;3.75;;;15.10;77.80;;;;;;5060186;28;20059;-66
2022/10/07 02:47:07;;;;;;;4.60;4.00;;;15.10;77.90;;;;;;5066714;28;20032;-66
2022/10/07 02:49:36;;;;;;;5.00;4.07;;;15.10;78.10;;;;;;5048835;28;20086;-66
2022/10/07 02:52:07;;;;;;;5.38;4.25;;;15.10;78.30;;;;;;5068698;28;20084;-66
2022/10/07 02:54:38;;;;;;;4.60;4.10;;;15.10;78.50;;;;;;5065922;28;20068;-66
2022/10/07 02:57:05;;;;;;;6.13;4.35;;;15.00;78.80;;;;;;5068173;28;20507;-66
2022/10/07 02:59:32;;;;;;;5.75;4.43;;;15.00;78.80;;;;;;5069018;28;20032;-66
2022/10/07 03:02:01;;;;;;;4.25;3.72;;;15.00;78.80;;;;;;5067176;28;20052;-66
2022/10/07 03:04:27;;;;;;;6.30;4.40;;;15.00;79.00;;;;;;5069008;28;20033;-66
2022/10/07 03:06:53;;;;;;;4.18;3.60;;;15.00;79.00;;;;;;5063110;28;20029;-66
2022/10/07 03:09:19;;;;;;;5.57;4.22;;;14.90;79.10;;;;;;5061673;28;20036;-66
2022/10/07 03:11:45;;;;;;;4.30;3.90;;;14.90;79.30;;;;;;5068165;28;20035;-66
2022/10/07 03:14:11;;;;;;;5.57;3.67;;;14.90;79.40;;;;;;5069044;28;20115;-66
2022/10/07 03:16:36;;;;;;;4.25;3.83;;;14.90;79.50;;;;;;5066176;28;20070;-66
2022/10/07 03:19:02;;;;;;;4.55;3.97;;;14.90;79.70;;;;;;5068649;28;20035;-66
2022/10/07 03:21:28;;;;;;;4.55;3.67;;;14.90;79.70;;;;;;5062532;28;20358;-66
2022/10/07 03:23:54;;;;;;;5.50;4.10;;;14.90;79.80;;;;;;5063681;28;20110;-66
2022/10/07 03:26:20;;;;;;;3.92;3.45;;;14.90;79.90;;;;;;5072077;28;20491;-66
2022/10/07 03:28:47;;;;;;;5.13;4.10;;;14.90;80.10;;;;;;5066857;28;20097;-66
2022/10/07 03:31:14;;;;;;;6.05;4.30;;;14.80;80.20;;;;;;5064756;28;20044;-66
2022/10/07 03:33:40;;;;;;;6.05;4.28;;;14.80;80.20;;;;;;5073139;28;20028;-66
2022/10/07 03:36:07;;;;;;;4.75;3.80;;;14.80;80.30;;;;;;5066137;28;20206;-66
2022/10/07 03:38:34;;;;;;;5.45;3.85;;;14.80;80.30;;;;;;5067166;28;20032;-66
2022/10/07 03:41:05;;;;;;;6.15;4.03;;;14.80;80.50;;;;;;5071499;28;20032;-66
2022/10/07 03:43:32;;;;;;;4.82;3.85;;;14.80;80.70;;;;;;5067250;28;20047;-66
2022/10/07 03:46:01;;;;;;;5.35;4.47;;;14.80;80.50;;;;;;5066507;28;20024;-66
2022/10/07 03:48:28;;;;;;;3.85;3.42;;;14.80;81.30;;;;;;5070885;28;20017;-66
2022/10/07 03:50:56;;;;;;;4.15;3.33;;;14.80;80.80;;;;;;5061440;28;20510;-66
2022/10/07 03:53:23;;;;;;;4.15;3.42;;;14.80;80.90;;;;;;5065134;28;20302;-66
2022/10/07 03:55:49;;;;;;;4.57;3.85;;;14.80;80.90;;;;;;5064824;28;20021;-66
2022/10/07 03:58:15;;;;;;;4.80;3.85;;;14.70;80.90;;;;;;5071343;28;20035;-66
2022/10/07 04:00:41;;;;;;;4.60;3.97;;;14.70;81.00;;;;;;5069171;28;20095;-66
2022/10/07 04:03:08;;;;;;;4.50;3.80;;;14.70;81.10;;;;;;5069388;28;20020;-66
2022/10/07 04:05:35;;;;;;;6.70;5.25;;;14.70;81.30;;;;;;5062170;28;20495;-66
2022/10/07 04:08:01;;;;;;;5.03;3.75;;;14.70;82.10;;;;;;5072969;28;20024;-66
2022/10/07 04:10:27;;;;;;;5.53;4.05;;;14.70;81.50;;;;;;5066442;28;20044;-66
2022/10/07 04:12:52;;;;;;;3.95;3.55;;;14.60;81.50;;;;;;5067392;28;20029;-66
2022/10/07 04:15:19;;;;;;;4.82;3.63;;;14.70;81.70;;;;;;5066300;28;20043;-66
2022/10/07 04:17:46;;;;;;;5.28;4.10;;;14.60;81.70;;;;;;5068914;28;20017;-66
2022/10/07 04:20:14;;;;;;;5.40;4.00;;;14.60;81.70;;;;;;5065703;28;20020;-66
2022/10/07 04:22:39;;;;;;;4.10;3.70;;;14.70;81.90;;;;;;5072706;28;20083;-66
2022/10/07 04:27:55;;;;;;;5.57;4.30;;;14.60;81.90;;;;;;5068445;28;20070;-66
2022/10/07 04:30:22;;;;;;;5.32;4.03;;;14.70;82.10;;;;;;5069119;28;20430;-66
2022/10/07 04:32:49;;;;;;;4.90;4.05;;;14.70;82.20;;;;;;5066436;28;20028;-66
2022/10/07 04:35:16;;;;;;;4.80;4.05;;;14.70;82.20;;;;;;5069504;28;20103;-66
2022/10/07 04:37:42;;;;;;;5.05;4.10;;;14.70;82.40;;;;;;5070962;28;20024;-66
2022/10/07 04:40:09;;;;;;;4.82;4.13;;;14.70;82.50;;;;;;5069951;28;20021;-66
2022/10/07 04:45:19;;;;;;;5.97;4.07;;;14.70;82.70;;;;;;5070047;28;20110;-66
2022/10/07 04:47:45;;;;;;;4.25;3.60;;;14.70;82.70;;;;;;5071976;28;20036;-66
2022/10/07 04:50:11;;;;;;;5.05;4.07;;;14.70;82.70;;;;;;5064329;28;20468;-66
2022/10/07 04:52:43;;;;;;;5.68;4.40;;;14.70;82.80;;;;;;5064062;28;20086;-66
2022/10/07 04:55:11;;;;;;;4.88;4.30;;;14.80;82.90;;;;;;5065305;28;20038;-66
2022/10/07 04:57:37;;;;;;;5.35;4.35;;;14.80;83.00;;;;;;5067433;28;20025;-66
2022/10/07 05:00:04;;;;;;;4.70;4.10;;;14.80;83.30;;;;;;5070848;28;20028;-66
2022/10/07 05:02:30;;;;;;;5.03;4.25;;;14.80;83.10;;;;;;5070944;28;20522;-66
2022/10/07 05:04:56;;;;;;;5.32;4.35;;;14.80;83.20;;;;;;5069953;28;20052;-66
2022/10/07 05:07:22;;;;;;;5.70;4.82;;;14.90;83.40;;;;;;5061306;28;20039;-66
2022/10/07 05:09:48;;;;;;;4.85;3.67;;;14.90;83.50;;;;;;5068341;28;20067;-66
2022/10/07 05:12:16;;;;;;;5.57;4.38;;;14.90;83.50;;;;;;5065971;28;20035;-66
2022/10/07 05:14:45;;;;;;;5.15;4.18;;;14.90;83.70;;;;;;5067144;28;20248;-66
2022/10/07 05:17:12;;;;;;;6.85;4.85;;;14.90;83.60;;;;;;5066620;28;20028;-66
2022/10/07 05:19:38;;;;;;;4.25;3.85;;;14.90;83.50;;;;;;5063350;28;20020;-66
2022/10/07 05:22:04;;;;;;;5.65;4.05;;;15.00;83.70;;;;;;5070684;28;20047;-66
2022/10/07 05:24:30;;;;;;;4.97;4.25;;;15.00;83.60;;;;;;5059708;28;20040;-66
2022/10/07 05:26:56;;;;;;;5.30;4.40;;;15.00;83.70;;;;;;5070734;28;20024;-66
2022/10/07 05:29:22;;;;;;;5.40;4.25;;;15.00;83.70;;;;;;5067769;28;20087;-66
2022/10/07 05:31:48;;;;;;;6.35;4.75;;;15.00;83.80;;;;;;5067098;28;20017;-66
2022/10/07 05:34:14;;;;;;;5.93;4.70;;;15.10;84.20;;;;;;5066122;28;20043;-67
2022/10/07 05:36:41;;;;;;;4.53;3.85;;;15.10;84.30;;;;;;5062550;28;20025;-66
2022/10/07 05:39:08;;;;;;;4.80;3.92;;;15.10;84.40;;;;;;5068700;28;20541;-66
2022/10/07 05:41:33;;;;;;;5.35;4.45;;;15.20;84.60;;;;;;5068888;28;20025;-66
2022/10/07 05:44:00;;;;;;;5.30;4.45;;;15.30;84.50;;;;;;5071585;28;20044;-66
2022/10/07 05:46:25;;;;;;;5.88;4.55;;;15.30;84.20;;;;;;5070500;28;20035;-66
2022/10/07 05:48:52;;;;;;;5.68;4.90;;;15.40;83.90;;;;;;5058689;28;20028;-66
2022/10/07 05:51:22;;;;;;;5.70;4.57;;;15.40;83.90;;;;;;5071049;28;20024;-66
2022/10/07 05:53:48;;;;;;;5.85;4.47;;;15.50;84.00;;;;;;5064156;28;20081;-66
2022/10/07 05:56:16;;;;;;;5.63;4.13;;;15.60;83.80;;;;;;5070881;28;20103;-67
2022/10/07 05:58:42;;;;;;;6.18;4.40;;;15.70;83.40;;;;;;5069034;28;20073;-66
2022/10/07 06:01:14;;;;;;;5.30;3.95;;;15.90;82.90;;;;;;5070202;28;20468;-67
2022/10/07 06:03:41;;;;;;;4.75;3.65;;;15.90;82.50;;;;;;5070667;28;20641;-67
2022/10/07 06:06:07;;;;;;;4.45;3.80;;;16.00;82.70;;;;;;5068205;28;20025;-67
2022/10/07 06:08:34;;;;;;;4.47;3.70;;;16.10;82.50;;;;;;5066926;28;20046;-66
2022/10/07 06:13:48;;;;;;;4.03;3.60;;;16.40;81.60;;;;;;5068624;28;20623;-66
2022/10/07 06:16:14;;;;;;;5.38;3.42;;;16.50;81.00;;;;;;5066818;28;20031;-66
2022/10/07 06:18:39;;;;;;;4.30;3.40;;;16.50;80.60;;;;;;5056880;28;20024;-66
2022/10/07 06:21:05;;;;;;;3.72;3.33;;;16.50;80.40;;;;;;5059239;28;20105;-66
2022/10/07 06:23:32;;;;;;;4.25;3.20;;;16.50;80.30;;;;;;5059124;28;20055;-66
2022/10/07 06:26:00;;;;;;;3.42;3.13;;;16.50;80.20;;;;;;5052667;28;20757;-66
2022/10/07 06:28:31;;;;;;;3.47;2.92;;;16.50;80.10;;;;;;5058684;28;20028;-67
2022/10/07 06:30:56;;;;;;;4.00;2.90;;;16.50;80.10;;;;;;5059439;28;20542;-67
2022/10/07 06:33:22;;;;;;;3.40;2.88;;;16.60;80.10;;;;;;5053603;28;20061;-66
2022/10/07 06:35:48;;;;;;;3.53;3.15;;;16.60;80.00;;;;;;5058276;28;20128;-66
2022/10/07 06:38:14;;;;;;;4.10;3.40;;;16.60;79.90;;;;;;5062863;28;20028;-66
2022/10/07 06:40:39;;;;;;;3.30;2.88;;;16.50;79.80;;;;;;5059806;28;20020;-67
2022/10/07 06:43:05;;;;;;;3.25;2.95;;;16.60;79.80;;;;;;5063682;28;20060;-67
2022/10/07 06:45:33;;;;;;;3.55;3.03;;;16.60;79.80;;;;;;5065081;28;20124;-67
2022/10/07 06:47:59;;;;;;;4.88;3.17;;;16.60;79.60;;;;;;5064102;28;20384;-67
2022/10/07 06:50:25;;;;;;;3.38;2.80;;;16.60;79.60;;;;;;5065447;28;20039;-67
2022/10/07 06:52:51;;;;;;;2.80;2.58;;;16.60;79.60;;;;;;5060535;28;20535;-66
2022/10/07 06:55:16;;;;;;;3.95;2.92;;;16.60;79.40;;;;;;5055197;28;20119;-66
2022/10/07 06:57:44;;;;;;;3.38;2.50;;;16.70;79.40;;;;;;5058930;28;20036;-66
2022/10/07 07:00:10;;;;;;;4.30;2.45;;;16.70;79.40;;;;;;5056237;28;20070;-66
2022/10/07 07:02:36;;;;;;;3.00;2.70;;;16.70;79.20;;;;;;5059906;28;20028;-66
2022/10/07 07:05:03;;;;;;;3.28;2.42;;;16.70;79.00;;;;;;5063729;28;20035;-66
2022/10/07 07:07:29;;;;;;;2.28;2.05;;;16.70;78.80;;;;;;5059479;28;20032;-66
2022/10/07 07:09:55;;;;;;;3.55;2.50;;;16.70;78.80;;;;;;5058328;28;20035;-66
2022/10/07 07:12:24;;;;;;;2.53;2.30;;;16.70;78.80;;;;;;5060406;28;20036;-66
2022/10/07 07:14:50;;;;;;;2.60;2.40;;;16.70;78.60;;;;;;5055173;28;20021;-66
2022/10/07 07:17:15;;;;;;;3.75;2.40;;;16.80;78.60;;;;;;5053609;28;20025;-66
2022/10/07 07:19:41;;;;;;;2.85;2.58;;;16.80;78.50;;;;;;5050427;28;20036;-67
2022/10/07 07:22:07;;;;;;;3.03;2.40;;;16.80;78.20;;;;;;5051019;28;20033;-66
2022/10/07 07:24:33;;;;;;;2.47;2.28;;;16.80;78.30;;;;;;5054932;28;20613;-66
2022/10/07 07:26:59;;;;;;;2.72;2.50;;;16.80;78.20;;;;;;5060698;28;20038;-66
2022/10/07 07:29:25;;;;;;;2.47;2.28;;;16.80;78.20;;;;;;5057024;28;20046;-66
2022/10/07 07:31:51;;;;;;;2.90;2.35;;;16.80;78.20;;;;;;5058272;28;20032;-66
2022/10/07 07:34:17;;;;;;;2.88;2.60;;;16.80;78.10;;;;;;5062185;28;20028;-66
2022/10/07 07:36:46;;;;;;;2.58;2.38;;;16.80;78.10;;;;;;5056334;28;20033;-66
2022/10/07 07:39:14;;;;;;;2.67;2.42;;;16.80;78.10;;;;;;5049404;28;20025;-66
2022/10/07 07:41:45;;;;;;;2.80;2.50;;;16.80;78.10;;;;;;5054120;28;20149;-66
2022/10/07 07:44:13;;;;;;;2.83;2.50;;;16.80;78.00;;;;;;5055007;28;20036;-63
2022/10/07 07:46:47;;;;;;;2.50;2.30;;;16.80;77.90;;;;;;5055200;28;20085;-66
2022/10/07 07:49:13;;;;;;;2.20;2.00;;;16.70;77.80;;;;;;5051623;28;20501;-66
2022/10/07 07:51:41;;;;;;;3.92;2.30;;;16.70;77.90;;;;;;5044122;28;20025;-66
2022/10/07 07:54:08;;;;;;;3.40;2.92;;;16.70;77.90;;;;;;5049049;28;20071;-66
2022/10/07 07:56:34;;;;;;;4.35;3.10;;;16.70;77.70;;;;;;5044895;28;20101;-66
2022/10/07 07:59:02;;;;;;;3.38;2.30;;;16.70;77.70;;;;;;5046682;28;20039;-67
2022/10/07 08:01:34;;;;;;;2.58;2.25;;;16.70;77.70;;;;;;5045660;28;20025;-66
2022/10/07 08:04:00;;;;;;;;;;;16.70;77.50;;;;;;5050186;28;20024;-65
2022/10/07 08:06:26;;;;;;;2.63;2.30;;;16.70;77.30;;;;;;5054845;28;19967;-65
2022/10/07 08:08:56;;;;;;;3.13;2.08;;;16.70;77.40;;;;;;5050662;28;20036;-68
2022/10/07 08:11:22;;;;;;;3.25;2.17;;;16.70;77.40;;;;;;5054545;28;20028;-66
2022/10/07 08:13:48;;;;;;;2.42;2.22;;;16.70;77.10;;;;;;5059091;28;20081;-66
2022/10/07 08:16:16;;;;;;;3.22;2.40;;;16.70;77.10;;;;;;5059018;28;20505;-66
2022/10/07 08:18:47;;;;;;;3.40;2.20;;;16.70;77.00;;;;;;5056609;28;20086;-66
2022/10/07 08:21:14;;;;;;;;;;;16.70;77.00;;;;;;5054814;28;20047;-66
2022/10/07 08:23:40;;;;;;;2.47;2.28;;;16.70;76.80;;;;;;5057595;28;19916;-65
2022/10/07 08:26:07;;;;;;;3.45;2.65;;;16.70;77.00;;;;;;5053600;28;20024;-68
2022/10/07 08:28:33;;;;;;;2.90;2.22;;;16.70;76.80;;;;;;5054488;28;20032;-66
2022/10/07 08:31:13;;;;;;;2.25;2.05;;;16.70;76.60;;;;;;5057889;28;20031;-67
2022/10/07 08:33:41;;;;;;;2.30;2.10;;;16.70;76.60;;;;;;5056028;28;20484;-66
2022/10/07 08:36:10;;;;;;;2.75;2.25;;;16.70;76.50;;;;;;5051809;28;20059;-64
2022/10/07 08:38:38;;;;;;;2.70;2.13;;;16.70;76.40;;;;;;5047678;28;20030;-69
2022/10/07 08:41:32;;;;;;;3.28;2.40;;;16.70;76.30;;;;;;5055677;28;20025;-66
2022/10/07 08:44:16;;;;;;;3.13;2.30;;;16.70;76.90;;;;;;5052337;28;20056;-67
2022/10/07 08:47:23;;;;;;;3.45;2.47;;;16.70;76.20;;;;;;5053107;28;20116;-65
2022/10/07 08:49:59;;;;;;;5.15;3.00;;;16.70;75.90;;;;;;5043338;28;20453;-66
2022/10/07 08:52:27;;;;;;;3.80;2.78;;;16.80;76.00;;;;;;5053372;28;20032;-66
2022/10/07 08:54:53;;;;;;;1.88;1.60;;;16.80;75.80;;;;;;5051494;28;20074;-70
2022/10/07 08:57:30;;;;;;;3.13;2.30;;;16.80;75.70;;;;;;5049824;28;20427;-68
2022/10/07 09:00:04;;;;;;;2.05;1.85;;;16.80;75.40;;;;;;5047748;28;20392;-67
2022/10/07 09:02:40;;;;;;;2.03;1.80;;;16.80;75.40;;;;;;5050111;28;20532;-67
2022/10/07 09:05:19;;;;;;;1.80;1.70;;;16.80;75.30;;;;;;5053103;28;20029;-67
2022/10/07 09:07:50;;;;;;;1.88;1.77;;;16.80;75.10;;;;;;5057968;28;20048;-67
2022/10/07 09:10:36;;;;;;;2.53;2.28;;;16.80;75.20;;;;;;5046251;28;20761;-67
2022/10/07 09:13:24;;;;;;;2.10;1.90;;;16.80;75.00;;;;;;5041527;28;20028;-67
2022/10/07 09:15:57;;;;;;;2.38;2.00;;;16.80;75.10;;;;;;5048525;28;20032;-67
2022/10/07 09:18:43;;;;;;;2.15;1.98;;;16.80;75.10;;;;;;5048836;28;20527;-67
2022/10/07 09:22:04;;;;;;;2.33;1.85;;;16.90;75.10;;;;;;5052399;28;20131;-67
2022/10/07 09:24:31;;;;;;;2.08;1.88;;;16.90;75.00;;;;;;5008849;28;20025;-67
2022/10/07 09:26:59;;;;;;;2.17;1.98;;;16.80;74.80;;;;;;5023609;28;20037;-67
2022/10/07 09:29:28;;;;;;;2.05;1.73;;;16.90;74.80;;;;;;5053820;28;20108;-67
2022/10/07 09:31:55;;;;;;;1.75;1.65;;;16.90;74.70;;;;;;5050651;28;20051;-69
2022/10/07 09:34:26;;;;;;;1.65;1.55;;;16.90;74.60;;;;;;5051040;28;20029;-67
2022/10/07 09:37:13;;;;;;;1.50;1.40;;;16.90;74.40;;;;;;5052121;28;20607;-67
2022/10/07 09:39:40;;;;;;;2.15;1.95;;;16.90;74.00;;;;;;5052961;28;20087;-67
2022/10/07 09:42:14;;;;;;;1.58;1.48;;;16.90;73.90;;;;;;5043803;28;20024;-68
2022/10/07 09:44:40;;;;;;;1.83;1.73;;;16.90;73.80;;;;;;5048446;28;20084;-69
2022/10/07 09:47:19;;;;;;;1.50;1.40;;;16.90;73.60;;;;;;5057558;28;20056;-68
2022/10/07 09:49:50;;;;;;;1.90;1.75;;;16.90;73.50;;;;;;5056144;28;20191;-66
2022/10/07 09:52:17;;;;;;;2.00;1.67;;;16.90;73.30;;;;;;5051553;28;20028;-66
2022/10/07 09:54:46;;;;;;;2.72;1.80;;;16.90;73.20;;;;;;5046151;28;20105;-66
2022/10/07 09:57:28;;;;;;;1.92;1.77;;;17.00;73.00;;;;;;5043894;28;20396;-65
2022/10/07 10:00:12;;;;;;;1.65;1.55;;;16.90;72.70;;;;;;5048997;28;20029;-65
2022/10/07 10:02:40;;;;;;;2.17;1.38;;;17.00;72.50;;;;;;5057261;28;20131;-65
2022/10/07 10:05:19;;;;;;;3.55;1.83;;;17.00;72.60;;;;;;5057609;28;20063;-65
2022/10/07 10:07:47;;;;;;;1.65;1.55;;;17.00;72.20;;;;;;5065917;28;20039;-65
2022/10/07 10:10:20;;;;;;;1.60;1.50;;;17.00;72.10;;;;;;5060378;28;20044;-65
2022/10/07 10:12:50;;;;;;;1.75;1.63;;;17.00;71.90;;;;;;5058112;28;20033;-65
2022/10/07 10:15:27;;;;;;;2.08;1.50;;;17.00;71.50;;;;;;5061432;28;20067;-65
2022/10/07 10:17:57;;;;;;;1.58;1.30;;;17.00;71.40;;;;;;5066617;28;20024;-65
2022/10/07 10:20:23;;;;;;;1.60;1.48;;;17.00;71.30;;;;;;5057804;28;20028;-66
2022/10/07 10:22:49;;;;;;;1.98;1.40;;;17.10;71.30;;;;;;5068324;28;20039;-66
2022/10/07 10:28:43;;;;;;;1.30;1.20;;;17.10;71.10;;;;;;5063077;28;20039;-66
2022/10/07 10:31:19;;;;;;;1.40;1.30;;;17.10;71.30;;;;;;5060960;28;20081;-66
2022/10/07 10:34:02;;;;;;;1.17;1.15;;;17.10;71.10;;;;;;5061211;28;20043;-66
2022/10/07 10:36:34;;;;;;;2.63;1.40;;;17.10;71.00;;;;;;5063268;28;20521;-66
2022/10/07 10:39:14;;;;;;;1.55;1.30;;;17.10;70.90;;;;;;5056697;28;20419;-66
2022/10/07 10:41:54;;;;;;;1.25;1.23;;;17.10;70.80;;;;;;5065383;28;20017;-66
2022/10/07 10:44:49;;;;;;;1.70;1.60;;;17.10;70.50;;;;;;5060947;28;20090;-63
2022/10/07 10:47:38;;;;;;;1.58;1.13;;;17.20;70.60;;;;;;5056728;28;20024;-63
2022/10/07 10:50:51;;;;;;;2.08;1.40;;;17.10;70.40;;;;;;5050750;28;20395;-65
2022/10/07 10:53:35;;;;;;;1.35;1.25;;;17.20;70.30;;;;;;5048525;28;20064;-64
2022/10/07 10:56:21;;;;;;;1.65;1.55;;;17.20;70.40;;;;;;5063257;28;20051;-64
2022/10/07 10:59:08;;;;;;;1.85;1.50;;;17.20;70.10;;;;;;5058926;28;20545;-64
2022/10/07 11:01:42;;;;;;;1.25;1.17;;;17.20;70.00;;;;;;5057920;28;20155;-64
2022/10/07 11:04:26;;;;;;;1.02;1.02;;;17.20;69.80;;;;;;5054503;28;20460;-64
2022/10/07 11:07:08;;;;;;;1.20;1.10;;;17.20;69.70;;;;;;5051522;28;20037;-64
2022/10/07 11:09:46;;;;;;;1.40;1.30;;;17.20;69.60;;;;;;5052910;28;20029;-64
2022/10/07 11:12:38;;;;;;;1.40;1.17;;;17.20;69.50;;;;;;5049943;28;20032;-65
2022/10/07 11:15:15;;;;;;;;;;;17.20;69.50;;;;;;5049715;28;20157;-63
2022/10/07 11:17:44;;;;;;;0.90;0.90;;;17.10;69.10;;;;;;5050562;28;19959;-63
2022/10/07 11:20:24;;;;;;;2.20;1.17;;;17.10;69.50;;;;;;5044446;28;20033;-66
2022/10/07 11:22:59;;;;;;;1.10;0.95;;;17.10;69.40;;;;;;5044891;28;20494;-67
2022/10/07 11:25:37;;;;;;;1.30;1.20;;;17.20;69.30;;;;;;5051032;28;20269;-64
2022/10/07 11:28:18;;;;;;;1.20;1.10;;;17.20;69.20;;;;;;5047563;28;20032;-65
2022/10/07 11:30:48;;;;;;;;;;;17.20;69.00;;;;;;5048677;28;20147;-65
2022/10/07 11:33:30;;;;;;;1.25;1.15;;;17.10;68.60;;;;;;5059749;28;19916;-65
2022/10/07 11:36:08;;;;;;;0.80;0.80;;;17.20;69.00;;;;;;5046894;28;20488;-65
2022/10/07 11:38:37;;;;;;;1.27;1.20;;;17.20;68.90;;;;;;5053031;28;20226;-65
2022/10/07 11:41:28;;;;;;;1.15;1.13;;;17.20;69.00;;;;;;5038137;28;20025;-65
2022/10/07 11:43:56;;;;;;;0.98;0.90;;;17.20;68.70;;;;;;5042146;28;20044;-64
2022/10/07 11:46:43;;;;;;;1.50;1.40;;;17.20;68.70;;;;;;5045346;28;20653;-64
2022/10/07 11:49:37;;;;;;;1.33;1.00;;;17.20;68.50;;;;;;5057106;28;20091;-65
2022/10/07 11:52:06;;;;;;;1.25;1.15;;;17.20;68.60;;;;;;5048111;28;20025;-67
2022/10/07 11:54:58;;;;;;;1.52;1.20;;;17.20;68.70;;;;;;5057601;28;20039;-64
2022/10/07 11:57:30;;;;;;;0.88;0.88;;;17.20;68.50;;;;;;5055210;28;20106;-65
2022/10/07 12:00:21;;;;;;;1.17;1.08;;;17.20;68.50;;;;;;5059303;28;20029;-66
2022/10/07 12:02:47;;;;;;;1.73;1.27;;;17.20;68.30;;;;;;5056070;28;20067;-64
2022/10/07 12:05:35;;;;;;;1.17;1.08;;;17.20;68.40;;;;;;5056781;28;20041;-67
2022/10/07 12:08:25;;;;;;;1.23;1.10;;;17.20;68.50;;;;;;5056467;28;20531;-66
2022/10/07 12:10:54;;;;;;;1.67;1.30;;;17.20;68.50;;;;;;5054018;28;20081;-65
2022/10/07 12:13:20;;;;;;;1.65;1.00;;;17.20;68.60;;;;;;5053563;28;20487;-65
2022/10/07 12:15:50;;;;;;;1.25;1.15;;;17.20;68.60;;;;;;5055097;28;20025;-66
2022/10/07 12:18:18;;;;;;;1.15;1.13;;;17.20;68.70;;;;;;5053921;28;20804;-65
2022/10/07 12:20:50;;;;;;;1.20;1.10;;;17.20;68.50;;;;;;5060531;28;20445;-65
2022/10/07 12:23:19;;;;;;;1.00;1.00;;;17.20;68.30;;;;;;5052983;28;20443;-66
2022/10/07 12:25:51;;;;;;;1.70;1.20;;;17.20;68.30;;;;;;5055770;28;20165;-66
2022/10/07 12:28:39;;;;;;;1.67;1.27;;;17.20;68.20;;;;;;5064757;28;20039;-65
2022/10/07 12:31:25;;;;;;;2.45;1.90;;;17.20;68.20;;;;;;5058711;28;20031;-66
2022/10/07 12:33:56;;;;;;;2.55;2.10;;;17.20;68.20;;;;;;5050915;28;20507;-65
2022/10/07 12:36:22;;;;;;;1.20;1.10;;;17.20;68.30;;;;;;5048963;28;20513;-68
2022/10/07 12:38:58;;;;;;;2.53;1.25;;;17.20;68.30;;;;;;5065736;28;20021;-69
2022/10/07 12:41:47;;;;;;;1.17;1.08;;;17.20;68.30;;;;;;5053202;28;20112;-67
2022/10/07 12:44:43;;;;;;;1.83;1.40;;;17.20;68.30;;;;;;5063488;28;20392;-72
2022/10/07 12:47:24;;;;;;;1.17;0.90;;;17.20;68.20;;;;;;5061279;28;20596;-72
2022/10/07 12:49:57;;;;;;;1.45;1.13;;;17.20;68.10;;;;;;5054503;28;20076;-68
2022/10/07 12:52:39;;;;;;;1.30;1.27;;;17.20;68.10;;;;;;5062237;28;20036;-70
2022/10/07 12:55:06;;;;;;;1.00;1.00;;;17.20;68.10;;;;;;5053153;28;20033;-70
2022/10/07 12:57:35;;;;;;;1.33;1.23;;;17.30;68.80;;;;;;5056582;28;20029;-69
2022/10/07 13:00:14;;;;;;;1.38;1.10;;;17.30;68.00;;;;;;5064056;28;20035;-70
2022/10/07 13:02:45;;;;;;;1.50;1.40;;;17.30;68.00;;;;;;5053932;28;20307;-68
2022/10/07 13:05:51;;;;;;;1.20;1.10;;;17.30;68.00;;;;;;5056822;28;20043;-71
2022/10/07 13:08:45;;;;;;;1.20;1.10;;;17.30;67.90;;;;;;5062155;28;20033;-68
2022/10/07 13:11:23;;;;;;;1.52;1.33;;;17.30;68.10;;;;;;5061694;28;20324;-68
2022/10/07 13:14:01;;;;;;;1.05;0.95;;;17.30;68.10;;;;;;5064171;28;20032;-71
2022/10/07 13:16:52;;;;;;;1.42;1.15;;;17.30;68.20;;;;;;5057740;28;20476;-72
2022/10/07 13:19:17;;;;;;;1.15;1.05;;;17.30;68.10;;;;;;5059645;28;20488;-69
2022/10/07 13:21:50;;;;;;;1.70;1.30;;;17.30;68.10;;;;;;5060000;28;20029;-68
2022/10/07 13:24:22;;;;;;;0.98;0.98;;;17.30;68.20;;;;;;5057955;28;20147;-68